sensor_id;sensor_type;location;lat;lon;timestamp;temperature;humidity
43695;DHT22;29300;43.560;1.294;2022-10-26T00:02:23;15.60;99.90
43695;DHT22;29300;43.560;1.294;2022-10-26T00:04:49;15.50;99.90
43695;DHT22;29300;43.560;1.294;2022-10-26T00:07:15;15.50;99.90
43695;DHT22;29300;43.560;1.294;2022-10-26T00:09:40;15.40;99.90
43695;DHT22;29300;43.560;1.294;2022-10-26T00:12:06;15.40;99.90
43695;DHT22;29300;43.560;1.294;2022-10-26T00:14:32;15.40;99.90
43695;DHT22;29300;43.560;1.294;2022-10-26T00:16:57;15.40;99.90
43695;DHT22;29300;43.560;1.294;2022-10-26T00:19:23;15.40;99.90
43695;DHT22;29300;43.560;1.294;2022-10-26T00:21:49;15.30;99.90
43695;DHT22;29300;43.560;1.294;2022-10-26T00:24:15;15.30;99.90
43695;DHT22;29300;43.560;1.294;2022-10-26T00:26:40;15.20;99.90
43695;DHT22;29300;43.560;1.294;2022-10-26T00:29:07;15.20;99.90
43695;DHT22;29300;43.560;1.294;2022-10-26T00:31:32;15.10;99.90
43695;DHT22;29300;43.560;1.294;2022-10-26T00:33:58;15.10;99.90
43695;DHT22;29300;43.560;1.294;2022-10-26T00:36:25;15.20;99.90
43695;DHT22;29300;43.560;1.294;2022-10-26T00:38:54;15.20;99.90
43695;DHT22;29300;43.560;1.294;2022-10-26T00:41:27;15.10;99.90
43695;DHT22;29300;43.560;1.294;2022-10-26T00:43:54;15.00;99.90
43695;DHT22;29300;43.560;1.294;2022-10-26T00:46:33;14.90;99.90
43695;DHT22;29300;43.560;1.294;2022-10-26T00:49:13;15.00;99.90
43695;DHT22;29300;43.560;1.294;2022-10-26T00:51:47;15.00;99.90
43695;DHT22;29300;43.560;1.294;2022-10-26T00:54:16;14.80;99.90
43695;DHT22;29300;43.560;1.294;2022-10-26T00:56:44;14.90;99.90
43695;DHT22;29300;43.560;1.294;2022-10-26T00:59:12;15.00;99.90
43695;DHT22;29300;43.560;1.294;2022-10-26T01:01:41;14.90;99.90
43695;DHT22;29300;43.560;1.294;2022-10-26T01:04:08;14.80;99.90
43695;DHT22;29300;43.560;1.294;2022-10-26T01:06:36;14.60;99.90
43695;DHT22;29300;43.560;1.294;2022-10-26T01:09:03;14.60;99.90
43695;DHT22;29300;43.560;1.294;2022-10-26T01:11:29;14.60;99.90
43695;DHT22;29300;43.560;1.294;2022-10-26T01:13:56;14.60;99.90
43695;DHT22;29300;43.560;1.294;2022-10-26T01:24:38;14.70;99.90
43695;DHT22;29300;43.560;1.294;2022-10-26T01:40:34;14.70;99.90
43695;DHT22;29300;43.560;1.294;2022-10-26T01:43:04;14.70;99.90
43695;DHT22;29300;43.560;1.294;2022-10-26T01:45:33;14.50;99.90
43695;DHT22;29300;43.560;1.294;2022-10-26T01:48:01;14.30;99.90
43695;DHT22;29300;43.560;1.294;2022-10-26T01:50:28;14.30;99.90
43695;DHT22;29300;43.560;1.294;2022-10-26T01:52:54;14.30;99.90
43695;DHT22;29300;43.560;1.294;2022-10-26T01:55:50;14.40;99.90
43695;DHT22;29300;43.560;1.294;2022-10-26T02:17:32;14.30;99.90
43695;DHT22;29300;43.560;1.294;2022-10-26T02:20:06;14.30;99.90
43695;DHT22;29300;43.560;1.294;2022-10-26T02:22:39;14.30;99.90
43695;DHT22;29300;43.560;1.294;2022-10-26T02:25:09;14.20;99.90
43695;DHT22;29300;43.560;1.294;2022-10-26T02:27:41;14.20;99.90
43695;DHT22;29300;43.560;1.294;2022-10-26T02:30:09;14.20;99.90
43695;DHT22;29300;43.560;1.294;2022-10-26T02:32:37;14.10;99.90
43695;DHT22;29300;43.560;1.294;2022-10-26T02:35:05;14.10;99.90
43695;DHT22;29300;43.560;1.294;2022-10-26T02:37:33;14.10;99.90
43695;DHT22;29300;43.560;1.294;2022-10-26T02:40:05;14.00;99.90
43695;DHT22;29300;43.560;1.294;2022-10-26T02:42:33;14.00;99.90
43695;DHT22;29300;43.560;1.294;2022-10-26T02:45:05;14.10;99.90
43695;DHT22;29300;43.560;1.294;2022-10-26T02:47:34;14.10;99.90
43695;DHT22;29300;43.560;1.294;2022-10-26T02:50:00;14.00;99.90
43695;DHT22;29300;43.560;1.294;2022-10-26T02:52:35;14.10;99.90
43695;DHT22;29300;43.560;1.294;2022-10-26T02:55:49;14.00;99.90
43695;DHT22;29300;43.560;1.294;2022-10-26T02:58:00;14.00;99.90
43695;DHT22;29300;43.560;1.294;2022-10-26T03:00:28;14.00;99.90
43695;DHT22;29300;43.560;1.294;2022-10-26T03:02:56;14.00;99.90
43695;DHT22;29300;43.560;1.294;2022-10-26T03:05:25;14.00;99.90
43695;DHT22;29300;43.560;1.294;2022-10-26T03:07:52;13.90;99.90
43695;DHT22;29300;43.560;1.294;2022-10-26T03:10:18;13.90;99.90
43695;DHT22;29300;43.560;1.294;2022-10-26T03:12:44;13.90;99.90
43695;DHT22;29300;43.560;1.294;2022-10-26T03:15:10;13.90;99.90
43695;DHT22;29300;43.560;1.294;2022-10-26T03:17:36;14.00;99.90
43695;DHT22;29300;43.560;1.294;2022-10-26T03:20:02;13.90;99.90
43695;DHT22;29300;43.560;1.294;2022-10-26T03:22:28;13.90;99.90
43695;DHT22;29300;43.560;1.294;2022-10-26T03:24:54;13.90;99.90
43695;DHT22;29300;43.560;1.294;2022-10-26T03:27:20;13.90;99.90
43695;DHT22;29300;43.560;1.294;2022-10-26T03:29:45;13.90;99.90
43695;DHT22;29300;43.560;1.294;2022-10-26T03:32:11;13.70;99.90
43695;DHT22;29300;43.560;1.294;2022-10-26T03:34:37;13.90;99.90
43695;DHT22;29300;43.560;1.294;2022-10-26T03:37:02;13.80;99.90
43695;DHT22;29300;43.560;1.294;2022-10-26T03:39:28;13.80;99.90
43695;DHT22;29300;43.560;1.294;2022-10-26T03:41:54;13.70;99.90
43695;DHT22;29300;43.560;1.294;2022-10-26T03:44:22;13.70;99.90
43695;DHT22;29300;43.560;1.294;2022-10-26T03:46:48;13.80;99.90
43695;DHT22;29300;43.560;1.294;2022-10-26T03:49:13;13.80;99.90
43695;DHT22;29300;43.560;1.294;2022-10-26T03:51:39;13.60;99.90
43695;DHT22;29300;43.560;1.294;2022-10-26T03:54:05;13.50;99.90
43695;DHT22;29300;43.560;1.294;2022-10-26T03:56:31;13.50;99.90
43695;DHT22;29300;43.560;1.294;2022-10-26T03:58:56;13.40;99.90
43695;DHT22;29300;43.560;1.294;2022-10-26T04:01:22;13.60;99.90
43695;DHT22;29300;43.560;1.294;2022-10-26T04:03:48;13.60;99.90
43695;DHT22;29300;43.560;1.294;2022-10-26T04:06:14;13.80;99.90
43695;DHT22;29300;43.560;1.294;2022-10-26T04:08:39;13.70;99.90
43695;DHT22;29300;43.560;1.294;2022-10-26T04:11:05;13.60;99.90
43695;DHT22;29300;43.560;1.294;2022-10-26T04:13:31;13.50;99.90
43695;DHT22;29300;43.560;1.294;2022-10-26T04:15:57;13.50;99.90
43695;DHT22;29300;43.560;1.294;2022-10-26T04:18:23;13.50;99.90
43695;DHT22;29300;43.560;1.294;2022-10-26T04:20:49;13.60;99.90
43695;DHT22;29300;43.560;1.294;2022-10-26T04:23:16;13.50;99.90
43695;DHT22;29300;43.560;1.294;2022-10-26T04:25:42;13.50;99.90
43695;DHT22;29300;43.560;1.294;2022-10-26T04:28:10;13.50;99.90
43695;DHT22;29300;43.560;1.294;2022-10-26T04:30:36;13.50;99.90
43695;DHT22;29300;43.560;1.294;2022-10-26T04:33:03;13.50;99.90
43695;DHT22;29300;43.560;1.294;2022-10-26T04:35:29;13.40;99.90
43695;DHT22;29300;43.560;1.294;2022-10-26T04:38:00;13.50;99.90
43695;DHT22;29300;43.560;1.294;2022-10-26T04:40:27;13.50;99.90
43695;DHT22;29300;43.560;1.294;2022-10-26T04:42:53;13.50;99.90
43695;DHT22;29300;43.560;1.294;2022-10-26T04:45:18;13.50;99.90
43695;DHT22;29300;43.560;1.294;2022-10-26T04:47:44;13.60;99.90
43695;DHT22;29300;43.560;1.294;2022-10-26T04:50:11;13.60;99.90
43695;DHT22;29300;43.560;1.294;2022-10-26T04:52:37;13.50;99.90
43695;DHT22;29300;43.560;1.294;2022-10-26T04:55:04;13.50;99.90
43695;DHT22;29300;43.560;1.294;2022-10-26T04:57:33;13.60;99.90
43695;DHT22;29300;43.560;1.294;2022-10-26T05:00:00;13.60;99.90
43695;DHT22;29300;43.560;1.294;2022-10-26T05:02:27;13.50;99.90
43695;DHT22;29300;43.560;1.294;2022-10-26T05:04:53;13.60;99.90
43695;DHT22;29300;43.560;1.294;2022-10-26T05:07:19;13.40;99.90
43695;DHT22;29300;43.560;1.294;2022-10-26T05:09:45;13.40;99.90
43695;DHT22;29300;43.560;1.294;2022-10-26T05:12:11;13.40;99.90
43695;DHT22;29300;43.560;1.294;2022-10-26T05:14:36;13.50;99.90
43695;DHT22;29300;43.560;1.294;2022-10-26T05:17:02;13.60;99.90
43695;DHT22;29300;43.560;1.294;2022-10-26T05:19:28;13.80;99.90
43695;DHT22;29300;43.560;1.294;2022-10-26T05:21:53;13.80;99.90
43695;DHT22;29300;43.560;1.294;2022-10-26T05:24:19;13.80;99.90
43695;DHT22;29300;43.560;1.294;2022-10-26T05:26:45;13.70;99.90
43695;DHT22;29300;43.560;1.294;2022-10-26T05:29:10;13.80;99.90
43695;DHT22;29300;43.560;1.294;2022-10-26T05:31:36;13.90;99.90
43695;DHT22;29300;43.560;1.294;2022-10-26T05:34:02;13.80;99.90
43695;DHT22;29300;43.560;1.294;2022-10-26T05:36:27;13.80;99.90
43695;DHT22;29300;43.560;1.294;2022-10-26T05:38:57;13.80;99.90
43695;DHT22;29300;43.560;1.294;2022-10-26T05:41:22;13.60;99.90
43695;DHT22;29300;43.560;1.294;2022-10-26T05:43:48;13.60;99.90
43695;DHT22;29300;43.560;1.294;2022-10-26T05:46:14;13.60;99.90
43695;DHT22;29300;43.560;1.294;2022-10-26T05:48:39;13.50;99.90
43695;DHT22;29300;43.560;1.294;2022-10-26T05:51:05;13.60;99.90
43695;DHT22;29300;43.560;1.294;2022-10-26T05:53:31;13.50;99.90
43695;DHT22;29300;43.560;1.294;2022-10-26T05:55:57;13.50;99.90
43695;DHT22;29300;43.560;1.294;2022-10-26T05:58:23;13.60;99.90
43695;DHT22;29300;43.560;1.294;2022-10-26T06:01:07;13.50;99.90
43695;DHT22;29300;43.560;1.294;2022-10-26T06:06:43;13.50;99.90
43695;DHT22;29300;43.560;1.294;2022-10-26T06:09:10;13.60;99.90
43695;DHT22;29300;43.560;1.294;2022-10-26T06:11:36;13.60;99.90
43695;DHT22;29300;43.560;1.294;2022-10-26T06:14:02;13.60;99.90
43695;DHT22;29300;43.560;1.294;2022-10-26T06:16:45;13.70;99.90
43695;DHT22;29300;43.560;1.294;2022-10-26T06:30:28;13.80;99.90
43695;DHT22;29300;43.560;1.294;2022-10-26T06:32:53;13.70;99.90
43695;DHT22;29300;43.560;1.294;2022-10-26T06:37:51;13.90;99.90
43695;DHT22;29300;43.560;1.294;2022-10-26T06:40:19;13.90;99.90
43695;DHT22;29300;43.560;1.294;2022-10-26T06:42:45;13.90;99.90
43695;DHT22;29300;43.560;1.294;2022-10-26T06:45:14;13.90;99.90
43695;DHT22;29300;43.560;1.294;2022-10-26T06:48:09;13.90;99.90
43695;DHT22;29300;43.560;1.294;2022-10-26T06:50:53;13.80;99.90
43695;DHT22;29300;43.560;1.294;2022-10-26T06:53:41;13.90;99.90
43695;DHT22;29300;43.560;1.294;2022-10-26T06:56:10;13.80;99.90
43695;DHT22;29300;43.560;1.294;2022-10-26T06:58:37;14.00;99.90
43695;DHT22;29300;43.560;1.294;2022-10-26T07:01:04;14.00;99.90
43695;DHT22;29300;43.560;1.294;2022-10-26T07:03:30;14.00;99.90
43695;DHT22;29300;43.560;1.294;2022-10-26T07:05:56;14.00;99.90
43695;DHT22;29300;43.560;1.294;2022-10-26T07:08:21;14.10;99.90
43695;DHT22;29300;43.560;1.294;2022-10-26T07:10:47;14.10;99.90
43695;DHT22;29300;43.560;1.294;2022-10-26T07:13:13;14.10;99.90
43695;DHT22;29300;43.560;1.294;2022-10-26T07:15:39;14.10;99.90
43695;DHT22;29300;43.560;1.294;2022-10-26T07:18:07;14.10;99.90
43695;DHT22;29300;43.560;1.294;2022-10-26T07:20:38;14.10;99.90
43695;DHT22;29300;43.560;1.294;2022-10-26T07:23:05;14.30;99.90
43695;DHT22;29300;43.560;1.294;2022-10-26T07:25:32;14.20;99.90
43695;DHT22;29300;43.560;1.294;2022-10-26T07:27:59;14.30;99.90
43695;DHT22;29300;43.560;1.294;2022-10-26T07:30:26;14.40;99.90
43695;DHT22;29300;43.560;1.294;2022-10-26T07:33:03;14.50;99.90
43695;DHT22;29300;43.560;1.294;2022-10-26T07:35:29;14.50;99.90
43695;DHT22;29300;43.560;1.294;2022-10-26T07:37:58;14.40;99.90
43695;DHT22;29300;43.560;1.294;2022-10-26T07:40:24;14.30;99.90
43695;DHT22;29300;43.560;1.294;2022-10-26T07:42:50;14.40;99.90
43695;DHT22;29300;43.560;1.294;2022-10-26T07:45:17;14.50;99.90
43695;DHT22;29300;43.560;1.294;2022-10-26T07:47:43;14.60;99.90
43695;DHT22;29300;43.560;1.294;2022-10-26T07:50:10;14.50;99.90
43695;DHT22;29300;43.560;1.294;2022-10-26T07:52:36;14.50;99.90
43695;DHT22;29300;43.560;1.294;2022-10-26T07:55:04;14.70;99.90
43695;DHT22;29300;43.560;1.294;2022-10-26T07:57:30;14.80;99.90
43695;DHT22;29300;43.560;1.294;2022-10-26T07:59:55;14.80;99.90
43695;DHT22;29300;43.560;1.294;2022-10-26T08:02:21;14.90;99.90
43695;DHT22;29300;43.560;1.294;2022-10-26T08:04:46;15.00;99.90
43695;DHT22;29300;43.560;1.294;2022-10-26T08:07:12;15.30;99.90
43695;DHT22;29300;43.560;1.294;2022-10-26T08:09:38;15.40;99.90
43695;DHT22;29300;43.560;1.294;2022-10-26T08:12:04;15.60;99.90
43695;DHT22;29300;43.560;1.294;2022-10-26T08:14:30;15.50;99.90
43695;DHT22;29300;43.560;1.294;2022-10-26T08:16:56;15.50;99.90
43695;DHT22;29300;43.560;1.294;2022-10-26T08:19:21;15.40;99.90
43695;DHT22;29300;43.560;1.294;2022-10-26T08:21:47;15.40;99.90
43695;DHT22;29300;43.560;1.294;2022-10-26T08:24:13;15.50;99.90
43695;DHT22;29300;43.560;1.294;2022-10-26T08:26:39;15.70;99.90
43695;DHT22;29300;43.560;1.294;2022-10-26T08:29:05;15.70;99.90
43695;DHT22;29300;43.560;1.294;2022-10-26T08:31:31;15.70;99.90
43695;DHT22;29300;43.560;1.294;2022-10-26T08:33:57;15.80;99.90
43695;DHT22;29300;43.560;1.294;2022-10-26T08:36:25;16.00;99.90
43695;DHT22;29300;43.560;1.294;2022-10-26T08:38:51;16.30;99.90
43695;DHT22;29300;43.560;1.294;2022-10-26T08:41:22;16.40;99.90
43695;DHT22;29300;43.560;1.294;2022-10-26T08:43:52;16.30;99.90
43695;DHT22;29300;43.560;1.294;2022-10-26T08:46:40;16.40;99.90
43695;DHT22;29300;43.560;1.294;2022-10-26T08:51:43;16.40;99.90
43695;DHT22;29300;43.560;1.294;2022-10-26T08:54:49;16.50;99.90
43695;DHT22;29300;43.560;1.294;2022-10-26T08:57:53;16.50;99.90
43695;DHT22;29300;43.560;1.294;2022-10-26T09:00:19;16.40;99.90
43695;DHT22;29300;43.560;1.294;2022-10-26T09:02:49;16.40;99.90
43695;DHT22;29300;43.560;1.294;2022-10-26T09:05:18;16.50;99.90
43695;DHT22;29300;43.560;1.294;2022-10-26T09:24:20;16.90;99.90
43695;DHT22;29300;43.560;1.294;2022-10-26T09:27:11;17.00;99.90
43695;DHT22;29300;43.560;1.294;2022-10-26T09:29:42;17.10;99.90
43695;DHT22;29300;43.560;1.294;2022-10-26T09:32:18;17.10;99.90
43695;DHT22;29300;43.560;1.294;2022-10-26T09:35:22;17.20;99.90
43695;DHT22;29300;43.560;1.294;2022-10-26T09:37:57;17.20;99.90
43695;DHT22;29300;43.560;1.294;2022-10-26T09:40:33;17.20;99.90
43695;DHT22;29300;43.560;1.294;2022-10-26T09:43:16;17.20;99.90
43695;DHT22;29300;43.560;1.294;2022-10-26T09:45:49;17.20;99.90
43695;DHT22;29300;43.560;1.294;2022-10-26T09:48:38;17.20;99.90
43695;DHT22;29300;43.560;1.294;2022-10-26T09:51:06;17.30;99.90
43695;DHT22;29300;43.560;1.294;2022-10-26T09:53:31;17.30;99.90
43695;DHT22;29300;43.560;1.294;2022-10-26T09:56:07;17.40;99.90
43695;DHT22;29300;43.560;1.294;2022-10-26T09:58:43;17.50;99.90
43695;DHT22;29300;43.560;1.294;2022-10-26T10:06:35;17.70;99.90
43695;DHT22;29300;43.560;1.294;2022-10-26T10:11:50;17.70;99.90
43695;DHT22;29300;43.560;1.294;2022-10-26T10:16:56;17.80;99.90
43695;DHT22;29300;43.560;1.294;2022-10-26T10:19:30;17.90;99.90
43695;DHT22;29300;43.560;1.294;2022-10-26T10:22:10;18.10;99.90
43695;DHT22;29300;43.560;1.294;2022-10-26T10:24:39;18.20;99.90
43695;DHT22;29300;43.560;1.294;2022-10-26T10:29:44;18.40;99.90
43695;DHT22;29300;43.560;1.294;2022-10-26T10:32:15;18.70;99.90
43695;DHT22;29300;43.560;1.294;2022-10-26T10:34:42;18.80;99.90
43695;DHT22;29300;43.560;1.294;2022-10-26T10:39:49;19.10;99.90
43695;DHT22;29300;43.560;1.294;2022-10-26T10:42:21;19.30;99.90
43695;DHT22;29300;43.560;1.294;2022-10-26T10:44:51;19.50;99.90
43695;DHT22;29300;43.560;1.294;2022-10-26T10:47:28;19.60;99.90
43695;DHT22;29300;43.560;1.294;2022-10-26T10:50:03;19.70;99.90
43695;DHT22;29300;43.560;1.294;2022-10-26T10:52:32;19.70;99.90
43695;DHT22;29300;43.560;1.294;2022-10-26T10:55:19;19.80;99.90
43695;DHT22;29300;43.560;1.294;2022-10-26T10:58:22;19.80;99.90
43695;DHT22;29300;43.560;1.294;2022-10-26T11:00:53;19.80;99.90
43695;DHT22;29300;43.560;1.294;2022-10-26T11:06:25;19.90;99.90
43695;DHT22;29300;43.560;1.294;2022-10-26T11:09:02;20.00;99.90
43695;DHT22;29300;43.560;1.294;2022-10-26T11:11:46;19.90;99.90
43695;DHT22;29300;43.560;1.294;2022-10-26T11:17:16;19.70;99.90
43695;DHT22;29300;43.560;1.294;2022-10-26T11:22:20;19.80;99.90
43695;DHT22;29300;43.560;1.294;2022-10-26T11:24:55;19.80;99.90
43695;DHT22;29300;43.560;1.294;2022-10-26T11:30:23;19.70;99.90
43695;DHT22;29300;43.560;1.294;2022-10-26T11:36:19;19.80;99.90
43695;DHT22;29300;43.560;1.294;2022-10-26T11:39:40;19.80;99.90
43695;DHT22;29300;43.560;1.294;2022-10-26T11:44:50;19.90;99.90
43695;DHT22;29300;43.560;1.294;2022-10-26T11:50:05;20.00;99.90
43695;DHT22;29300;43.560;1.294;2022-10-26T11:52:39;20.10;99.90
43695;DHT22;29300;43.560;1.294;2022-10-26T11:55:09;20.20;99.90
43695;DHT22;29300;43.560;1.294;2022-10-26T11:57:36;20.20;99.90
43695;DHT22;29300;43.560;1.294;2022-10-26T12:00:12;20.20;99.90
43695;DHT22;29300;43.560;1.294;2022-10-26T12:02:41;20.30;99.90
43695;DHT22;29300;43.560;1.294;2022-10-26T12:05:19;20.40;99.90
43695;DHT22;29300;43.560;1.294;2022-10-26T12:07:55;20.40;99.90
43695;DHT22;29300;43.560;1.294;2022-10-26T12:10:26;20.50;99.90
43695;DHT22;29300;43.560;1.294;2022-10-26T12:13:24;20.60;99.90
43695;DHT22;29300;43.560;1.294;2022-10-26T12:16:00;20.60;99.90
43695;DHT22;29300;43.560;1.294;2022-10-26T12:18:45;20.80;99.90
43695;DHT22;29300;43.560;1.294;2022-10-26T12:21:13;21.00;99.90
43695;DHT22;29300;43.560;1.294;2022-10-26T12:26:56;21.10;99.90
43695;DHT22;29300;43.560;1.294;2022-10-26T12:29:35;21.10;99.90
43695;DHT22;29300;43.560;1.294;2022-10-26T12:34:59;21.20;99.90
43695;DHT22;29300;43.560;1.294;2022-10-26T12:37:35;21.20;99.90
43695;DHT22;29300;43.560;1.294;2022-10-26T12:48:45;21.30;99.90
43695;DHT22;29300;43.560;1.294;2022-10-26T13:05:28;21.30;99.90
43695;DHT22;29300;43.560;1.294;2022-10-26T13:08:06;21.30;99.90
43695;DHT22;29300;43.560;1.294;2022-10-26T13:10:33;21.30;99.90
43695;DHT22;29300;43.560;1.294;2022-10-26T13:13:01;21.30;99.90
43695;DHT22;29300;43.560;1.294;2022-10-26T13:15:38;21.30;99.90
43695;DHT22;29300;43.560;1.294;2022-10-26T13:18:13;21.30;99.90
43695;DHT22;29300;43.560;1.294;2022-10-26T13:23:31;21.60;99.90
43695;DHT22;29300;43.560;1.294;2022-10-26T13:26:17;21.70;99.90
43695;DHT22;29300;43.560;1.294;2022-10-26T13:28:53;21.90;99.90
43695;DHT22;29300;43.560;1.294;2022-10-26T13:33:51;22.10;99.90
43695;DHT22;29300;43.560;1.294;2022-10-26T13:39:05;22.10;99.90
43695;DHT22;29300;43.560;1.294;2022-10-26T13:41:37;22.20;99.90
43695;DHT22;29300;43.560;1.294;2022-10-26T13:44:05;22.20;99.90
43695;DHT22;29300;43.560;1.294;2022-10-26T13:46:37;22.30;99.90
43695;DHT22;29300;43.560;1.294;2022-10-26T13:49:33;22.40;99.90
43695;DHT22;29300;43.560;1.294;2022-10-26T13:52:02;22.40;99.90
43695;DHT22;29300;43.560;1.294;2022-10-26T13:54:58;22.40;99.90
43695;DHT22;29300;43.560;1.294;2022-10-26T13:57:42;22.50;99.90
43695;DHT22;29300;43.560;1.294;2022-10-26T14:00:21;22.50;99.90
43695;DHT22;29300;43.560;1.294;2022-10-26T14:02:47;22.40;99.90
43695;DHT22;29300;43.560;1.294;2022-10-26T14:05:15;22.30;99.90
43695;DHT22;29300;43.560;1.294;2022-10-26T14:07:55;22.40;99.90
43695;DHT22;29300;43.560;1.294;2022-10-26T14:10:33;22.40;99.90
43695;DHT22;29300;43.560;1.294;2022-10-26T14:13:06;22.30;99.90
43695;DHT22;29300;43.560;1.294;2022-10-26T14:15:32;22.20;99.90
43695;DHT22;29300;43.560;1.294;2022-10-26T14:18:00;22.20;99.90
43695;DHT22;29300;43.560;1.294;2022-10-26T14:20:29;22.10;99.90
43695;DHT22;29300;43.560;1.294;2022-10-26T14:22:55;22.10;99.90
43695;DHT22;29300;43.560;1.294;2022-10-26T14:25:24;21.90;99.90
43695;DHT22;29300;43.560;1.294;2022-10-26T14:27:51;21.90;99.90
43695;DHT22;29300;43.560;1.294;2022-10-26T14:32:47;21.90;99.90
43695;DHT22;29300;43.560;1.294;2022-10-26T14:35:14;21.90;99.90
43695;DHT22;29300;43.560;1.294;2022-10-26T14:38:31;21.90;99.90
43695;DHT22;29300;43.560;1.294;2022-10-26T14:40:37;22.00;99.90
43695;DHT22;29300;43.560;1.294;2022-10-26T14:43:04;22.00;99.90
43695;DHT22;29300;43.560;1.294;2022-10-26T14:47:56;22.00;99.90
43695;DHT22;29300;43.560;1.294;2022-10-26T14:50:24;22.10;99.90
43695;DHT22;29300;43.560;1.294;2022-10-26T14:52:57;22.20;99.90
43695;DHT22;29300;43.560;1.294;2022-10-26T14:55:25;22.10;99.90
43695;DHT22;29300;43.560;1.294;2022-10-26T14:58:13;22.00;99.90
43695;DHT22;29300;43.560;1.294;2022-10-26T15:00:40;22.00;99.90
43695;DHT22;29300;43.560;1.294;2022-10-26T15:03:13;22.00;99.90
43695;DHT22;29300;43.560;1.294;2022-10-26T15:05:40;22.00;99.90
43695;DHT22;29300;43.560;1.294;2022-10-26T15:08:41;22.00;99.90
43695;DHT22;29300;43.560;1.294;2022-10-26T15:11:08;21.90;99.90
43695;DHT22;29300;43.560;1.294;2022-10-26T15:13:34;21.90;99.90
43695;DHT22;29300;43.560;1.294;2022-10-26T15:16:14;21.90;99.90
43695;DHT22;29300;43.560;1.294;2022-10-26T15:18:41;21.80;99.90
43695;DHT22;29300;43.560;1.294;2022-10-26T15:21:31;21.90;99.90
43695;DHT22;29300;43.560;1.294;2022-10-26T15:23:59;21.90;99.90
43695;DHT22;29300;43.560;1.294;2022-10-26T15:26:25;21.90;99.90
43695;DHT22;29300;43.560;1.294;2022-10-26T15:28:53;21.90;99.90
43695;DHT22;29300;43.560;1.294;2022-10-26T15:36:20;21.80;99.90
43695;DHT22;29300;43.560;1.294;2022-10-26T15:38:48;21.80;99.90
43695;DHT22;29300;43.560;1.294;2022-10-26T15:41:14;21.80;99.90
43695;DHT22;29300;43.560;1.294;2022-10-26T15:43:42;21.80;99.90
43695;DHT22;29300;43.560;1.294;2022-10-26T15:46:08;21.80;99.90
43695;DHT22;29300;43.560;1.294;2022-10-26T15:48:33;21.80;99.90
43695;DHT22;29300;43.560;1.294;2022-10-26T15:51:00;21.80;99.90
43695;DHT22;29300;43.560;1.294;2022-10-26T15:53:26;21.70;99.90
43695;DHT22;29300;43.560;1.294;2022-10-26T15:55:54;21.70;99.90
43695;DHT22;29300;43.560;1.294;2022-10-26T15:58:21;21.60;99.90
43695;DHT22;29300;43.560;1.294;2022-10-26T16:00:47;21.50;99.90
43695;DHT22;29300;43.560;1.294;2022-10-26T16:03:16;21.50;99.90
43695;DHT22;29300;43.560;1.294;2022-10-26T16:05:42;21.50;99.90
43695;DHT22;29300;43.560;1.294;2022-10-26T16:08:13;21.50;99.90
43695;DHT22;29300;43.560;1.294;2022-10-26T16:10:40;21.40;99.90
43695;DHT22;29300;43.560;1.294;2022-10-26T16:13:12;21.40;99.90
43695;DHT22;29300;43.560;1.294;2022-10-26T16:15:38;21.40;99.90
43695;DHT22;29300;43.560;1.294;2022-10-26T16:18:04;21.30;99.90
43695;DHT22;29300;43.560;1.294;2022-10-26T16:20:30;21.30;99.90
43695;DHT22;29300;43.560;1.294;2022-10-26T16:22:55;21.30;99.90
43695;DHT22;29300;43.560;1.294;2022-10-26T16:25:24;21.20;99.90
43695;DHT22;29300;43.560;1.294;2022-10-26T16:27:51;21.20;99.90
43695;DHT22;29300;43.560;1.294;2022-10-26T16:30:18;21.10;99.90
43695;DHT22;29300;43.560;1.294;2022-10-26T16:32:44;21.10;99.90
43695;DHT22;29300;43.560;1.294;2022-10-26T16:35:11;21.10;99.90
43695;DHT22;29300;43.560;1.294;2022-10-26T16:37:37;21.00;99.90
43695;DHT22;29300;43.560;1.294;2022-10-26T16:40:04;21.00;99.90
43695;DHT22;29300;43.560;1.294;2022-10-26T16:42:31;20.90;99.90
43695;DHT22;29300;43.560;1.294;2022-10-26T16:44:57;20.80;99.90
43695;DHT22;29300;43.560;1.294;2022-10-26T16:47:23;20.70;99.90
43695;DHT22;29300;43.560;1.294;2022-10-26T16:49:49;20.70;99.90
43695;DHT22;29300;43.560;1.294;2022-10-26T16:52:15;20.60;99.90
43695;DHT22;29300;43.560;1.294;2022-10-26T16:54:41;20.40;99.90
43695;DHT22;29300;43.560;1.294;2022-10-26T16:57:07;20.40;99.90
43695;DHT22;29300;43.560;1.294;2022-10-26T16:59:32;20.50;99.90
43695;DHT22;29300;43.560;1.294;2022-10-26T17:01:58;20.40;99.90
43695;DHT22;29300;43.560;1.294;2022-10-26T17:04:24;20.40;99.90
43695;DHT22;29300;43.560;1.294;2022-10-26T17:06:50;20.30;99.90
43695;DHT22;29300;43.560;1.294;2022-10-26T17:09:15;20.30;99.90
43695;DHT22;29300;43.560;1.294;2022-10-26T17:11:41;20.30;99.90
43695;DHT22;29300;43.560;1.294;2022-10-26T17:14:07;20.20;99.90
43695;DHT22;29300;43.560;1.294;2022-10-26T17:16:32;20.30;99.90
43695;DHT22;29300;43.560;1.294;2022-10-26T17:19:01;20.20;99.90
43695;DHT22;29300;43.560;1.294;2022-10-26T17:21:29;20.20;99.90
43695;DHT22;29300;43.560;1.294;2022-10-26T17:23:56;20.00;99.90
43695;DHT22;29300;43.560;1.294;2022-10-26T17:26:22;19.90;99.90
43695;DHT22;29300;43.560;1.294;2022-10-26T17:28:54;19.90;99.90
43695;DHT22;29300;43.560;1.294;2022-10-26T17:31:21;19.90;99.90
43695;DHT22;29300;43.560;1.294;2022-10-26T17:33:47;19.90;99.90
43695;DHT22;29300;43.560;1.294;2022-10-26T17:36:15;19.80;99.90
43695;DHT22;29300;43.560;1.294;2022-10-26T17:38:42;19.80;99.90
43695;DHT22;29300;43.560;1.294;2022-10-26T17:41:10;19.70;99.90
43695;DHT22;29300;43.560;1.294;2022-10-26T17:43:37;19.60;99.90
43695;DHT22;29300;43.560;1.294;2022-10-26T17:46:06;19.60;99.90
43695;DHT22;29300;43.560;1.294;2022-10-26T17:48:32;19.40;99.90
43695;DHT22;29300;43.560;1.294;2022-10-26T17:51:03;19.50;99.90
43695;DHT22;29300;43.560;1.294;2022-10-26T17:53:29;19.40;99.90
43695;DHT22;29300;43.560;1.294;2022-10-26T17:56:06;19.30;99.90
43695;DHT22;29300;43.560;1.294;2022-10-26T17:58:33;19.20;99.90
43695;DHT22;29300;43.560;1.294;2022-10-26T18:01:01;19.10;99.90
43695;DHT22;29300;43.560;1.294;2022-10-26T18:03:27;19.00;99.90
43695;DHT22;29300;43.560;1.294;2022-10-26T18:05:53;19.00;99.90
43695;DHT22;29300;43.560;1.294;2022-10-26T18:08:18;18.90;99.90
43695;DHT22;29300;43.560;1.294;2022-10-26T18:10:49;18.80;99.90
43695;DHT22;29300;43.560;1.294;2022-10-26T18:13:15;18.70;99.90
43695;DHT22;29300;43.560;1.294;2022-10-26T18:15:41;18.70;99.90
43695;DHT22;29300;43.560;1.294;2022-10-26T18:18:06;18.90;99.90
43695;DHT22;29300;43.560;1.294;2022-10-26T18:20:32;18.90;99.90
43695;DHT22;29300;43.560;1.294;2022-10-26T18:22:58;18.90;99.90
43695;DHT22;29300;43.560;1.294;2022-10-26T18:25:24;18.80;99.90
43695;DHT22;29300;43.560;1.294;2022-10-26T18:27:50;18.80;99.90